sensor_id;sensor_type;location;lat;lon;timestamp;P1;durP1;ratioP1;P2;durP2;ratioP2
14554;SDS011;7364;50.870;4.722;2023-06-14T00:02:19;7.40;;;6.37;;
14554;SDS011;7364;50.870;4.722;2023-06-14T00:04:48;7.13;;;6.43;;
14554;SDS011;7364;50.870;4.722;2023-06-14T00:07:16;8.33;;;7.37;;
14554;SDS011;7364;50.870;4.722;2023-06-14T00:09:44;9.27;;;7.90;;
14554;SDS011;7364;50.870;4.722;2023-06-14T00:12:11;8.67;;;6.97;;
14554;SDS011;7364;50.870;4.722;2023-06-14T00:14:39;7.20;;;6.60;;
14554;SDS011;7364;50.870;4.722;2023-06-14T00:17:06;9.70;;;8.70;;
14554;SDS011;7364;50.870;4.722;2023-06-14T00:19:33;12.13;;;10.40;;
14554;SDS011;7364;50.870;4.722;2023-06-14T00:22:03;8.73;;;7.67;;
14554;SDS011;7364;50.870;4.722;2023-06-14T00:24:31;8.27;;;7.17;;
14554;SDS011;7364;50.870;4.722;2023-06-14T00:26:58;8.93;;;6.60;;
14554;SDS011;7364;50.870;4.722;2023-06-14T00:29:25;9.00;;;6.83;;
14554;SDS011;7364;50.870;4.722;2023-06-14T00:31:52;7.40;;;6.43;;
14554;SDS011;7364;50.870;4.722;2023-06-14T00:34:20;8.23;;;6.50;;
14554;SDS011;7364;50.870;4.722;2023-06-14T00:36:47;10.33;;;6.80;;
14554;SDS011;7364;50.870;4.722;2023-06-14T00:39:16;7.30;;;6.60;;
14554;SDS011;7364;50.870;4.722;2023-06-14T00:41:43;7.80;;;5.90;;
14554;SDS011;7364;50.870;4.722;2023-06-14T00:44:10;7.20;;;6.10;;
14554;SDS011;7364;50.870;4.722;2023-06-14T00:46:39;8.20;;;6.90;;
14554;SDS011;7364;50.870;4.722;2023-06-14T00:49:06;8.83;;;7.13;;
14554;SDS011;7364;50.870;4.722;2023-06-14T00:51:34;8.57;;;6.27;;
14554;SDS011;7364;50.870;4.722;2023-06-14T00:54:02;7.57;;;6.70;;
14554;SDS011;7364;50.870;4.722;2023-06-14T00:56:31;9.23;;;7.07;;
14554;SDS011;7364;50.870;4.722;2023-06-14T00:58:58;7.50;;;6.70;;
14554;SDS011;7364;50.870;4.722;2023-06-14T01:01:26;6.87;;;6.03;;
14554;SDS011;7364;50.870;4.722;2023-06-14T01:03:53;8.13;;;7.13;;
14554;SDS011;7364;50.870;4.722;2023-06-14T01:06:23;7.03;;;6.13;;
14554;SDS011;7364;50.870;4.722;2023-06-14T01:09:01;7.17;;;6.23;;
14554;SDS011;7364;50.870;4.722;2023-06-14T01:11:41;9.77;;;7.17;;
14554;SDS011;7364;50.870;4.722;2023-06-14T01:14:25;7.87;;;6.77;;
14554;SDS011;7364;50.870;4.722;2023-06-14T01:16:55;9.30;;;6.80;;
14554;SDS011;7364;50.870;4.722;2023-06-14T01:19:25;6.30;;;5.70;;
14554;SDS011;7364;50.870;4.722;2023-06-14T01:21:53;12.33;;;6.70;;
14554;SDS011;7364;50.870;4.722;2023-06-14T01:24:23;7.20;;;6.37;;
14554;SDS011;7364;50.870;4.722;2023-06-14T01:26:54;9.70;;;6.70;;
14554;SDS011;7364;50.870;4.722;2023-06-14T01:29:23;8.37;;;7.00;;
14554;SDS011;7364;50.870;4.722;2023-06-14T01:31:53;8.80;;;6.83;;
14554;SDS011;7364;50.870;4.722;2023-06-14T01:34:20;11.90;;;7.30;;
14554;SDS011;7364;50.870;4.722;2023-06-14T01:36:48;9.70;;;7.73;;
14554;SDS011;7364;50.870;4.722;2023-06-14T01:39:18;10.60;;;8.10;;
14554;SDS011;7364;50.870;4.722;2023-06-14T01:41:47;8.63;;;7.73;;
14554;SDS011;7364;50.870;4.722;2023-06-14T01:44:16;8.37;;;7.33;;
14554;SDS011;7364;50.870;4.722;2023-06-14T01:46:44;8.63;;;7.20;;
14554;SDS011;7364;50.870;4.722;2023-06-14T01:49:12;8.13;;;6.87;;
14554;SDS011;7364;50.870;4.722;2023-06-14T01:51:39;8.00;;;7.30;;
14554;SDS011;7364;50.870;4.722;2023-06-14T01:54:07;8.57;;;7.63;;
14554;SDS011;7364;50.870;4.722;2023-06-14T01:56:34;8.77;;;7.50;;
14554;SDS011;7364;50.870;4.722;2023-06-14T01:59:02;8.03;;;6.97;;
14554;SDS011;7364;50.870;4.722;2023-06-14T02:01:30;9.30;;;7.83;;
14554;SDS011;7364;50.870;4.722;2023-06-14T02:03:59;11.07;;;7.43;;
14554;SDS011;7364;50.870;4.722;2023-06-14T02:06:27;9.80;;;7.53;;
14554;SDS011;7364;50.870;4.722;2023-06-14T02:08:54;9.60;;;6.97;;
14554;SDS011;7364;50.870;4.722;2023-06-14T02:11:21;9.60;;;7.83;;
14554;SDS011;7364;50.870;4.722;2023-06-14T02:13:48;8.33;;;7.40;;
14554;SDS011;7364;50.870;4.722;2023-06-14T02:16:18;8.33;;;7.63;;
14554;SDS011;7364;50.870;4.722;2023-06-14T02:18:45;10.23;;;7.80;;
14554;SDS011;7364;50.870;4.722;2023-06-14T02:21:13;8.53;;;7.07;;
14554;SDS011;7364;50.870;4.722;2023-06-14T02:23:41;8.53;;;7.57;;
14554;SDS011;7364;50.870;4.722;2023-06-14T02:26:08;9.37;;;7.60;;
14554;SDS011;7364;50.870;4.722;2023-06-14T02:28:36;8.67;;;7.77;;
14554;SDS011;7364;50.870;4.722;2023-06-14T02:31:03;9.20;;;6.87;;
14554;SDS011;7364;50.870;4.722;2023-06-14T02:33:32;8.97;;;7.50;;
14554;SDS011;7364;50.870;4.722;2023-06-14T02:36:00;9.03;;;7.13;;
14554;SDS011;7364;50.870;4.722;2023-06-14T02:38:28;8.50;;;7.53;;
14554;SDS011;7364;50.870;4.722;2023-06-14T02:40:56;10.00;;;8.13;;
14554;SDS011;7364;50.870;4.722;2023-06-14T02:43:24;8.83;;;7.43;;
14554;SDS011;7364;50.870;4.722;2023-06-14T02:45:51;9.77;;;7.93;;
14554;SDS011;7364;50.870;4.722;2023-06-14T02:48:18;8.30;;;7.53;;
14554;SDS011;7364;50.870;4.722;2023-06-14T02:50:47;9.40;;;8.17;;
14554;SDS011;7364;50.870;4.722;2023-06-14T02:53:15;8.27;;;6.97;;
14554;SDS011;7364;50.870;4.722;2023-06-14T02:55:43;9.03;;;7.80;;
14554;SDS011;7364;50.870;4.722;2023-06-14T02:58:12;8.90;;;8.00;;
14554;SDS011;7364;50.870;4.722;2023-06-14T03:00:39;10.00;;;7.70;;
14554;SDS011;7364;50.870;4.722;2023-06-14T03:03:07;9.23;;;7.97;;
14554;SDS011;7364;50.870;4.722;2023-06-14T03:05:38;7.93;;;7.23;;
14554;SDS011;7364;50.870;4.722;2023-06-14T03:08:13;8.63;;;7.80;;
14554;SDS011;7364;50.870;4.722;2023-06-14T03:10:45;10.77;;;8.87;;
14554;SDS011;7364;50.870;4.722;2023-06-14T03:13:13;10.03;;;7.90;;
14554;SDS011;7364;50.870;4.722;2023-06-14T03:15:41;10.03;;;8.60;;
14554;SDS011;7364;50.870;4.722;2023-06-14T03:18:11;8.37;;;7.57;;
14554;SDS011;7364;50.870;4.722;2023-06-14T03:20:40;11.83;;;8.83;;
14554;SDS011;7364;50.870;4.722;2023-06-14T03:23:07;9.40;;;8.40;;
14554;SDS011;7364;50.870;4.722;2023-06-14T03:25:36;11.10;;;8.27;;
14554;SDS011;7364;50.870;4.722;2023-06-14T03:28:05;10.03;;;8.37;;
14554;SDS011;7364;50.870;4.722;2023-06-14T03:30:33;9.30;;;7.47;;
14554;SDS011;7364;50.870;4.722;2023-06-14T03:33:00;9.70;;;8.60;;
14554;SDS011;7364;50.870;4.722;2023-06-14T03:35:28;9.73;;;8.40;;
14554;SDS011;7364;50.870;4.722;2023-06-14T03:37:55;10.23;;;8.03;;
14554;SDS011;7364;50.870;4.722;2023-06-14T03:40:23;11.03;;;8.93;;
14554;SDS011;7364;50.870;4.722;2023-06-14T03:42:54;9.17;;;8.00;;
14554;SDS011;7364;50.870;4.722;2023-06-14T03:45:21;9.83;;;8.73;;
14554;SDS011;7364;50.870;4.722;2023-06-14T03:47:49;10.60;;;8.53;;
14554;SDS011;7364;50.870;4.722;2023-06-14T03:50:17;10.73;;;8.10;;
14554;SDS011;7364;50.870;4.722;2023-06-14T03:52:44;9.13;;;8.00;;
14554;SDS011;7364;50.870;4.722;2023-06-14T03:55:15;9.63;;;8.70;;
14554;SDS011;7364;50.870;4.722;2023-06-14T03:57:43;11.23;;;8.87;;
14554;SDS011;7364;50.870;4.722;2023-06-14T04:00:12;10.37;;;8.37;;
14554;SDS011;7364;50.870;4.722;2023-06-14T04:02:40;10.67;;;7.63;;
14554;SDS011;7364;50.870;4.722;2023-06-14T04:05:09;9.83;;;7.57;;
14554;SDS011;7364;50.870;4.722;2023-06-14T04:07:37;9.73;;;8.83;;
14554;SDS011;7364;50.870;4.722;2023-06-14T04:10:05;9.87;;;8.77;;
14554;SDS011;7364;50.870;4.722;2023-06-14T04:12:34;13.97;;;8.33;;
14554;SDS011;7364;50.870;4.722;2023-06-14T04:15:01;11.20;;;8.87;;
14554;SDS011;7364;50.870;4.722;2023-06-14T04:17:30;9.47;;;8.47;;
14554;SDS011;7364;50.870;4.722;2023-06-14T04:19:58;9.47;;;8.47;;
14554;SDS011;7364;50.870;4.722;2023-06-14T04:22:25;10.27;;;8.50;;
14554;SDS011;7364;50.870;4.722;2023-06-14T04:24:54;8.70;;;7.80;;
14554;SDS011;7364;50.870;4.722;2023-06-14T04:27:21;8.50;;;7.60;;
14554;SDS011;7364;50.870;4.722;2023-06-14T04:29:51;8.57;;;7.77;;
14554;SDS011;7364;50.870;4.722;2023-06-14T04:32:23;10.87;;;8.27;;
14554;SDS011;7364;50.870;4.722;2023-06-14T04:34:53;9.33;;;8.20;;
14554;SDS011;7364;50.870;4.722;2023-06-14T04:37:21;8.57;;;7.77;;
14554;SDS011;7364;50.870;4.722;2023-06-14T04:39:48;9.33;;;8.27;;
14554;SDS011;7364;50.870;4.722;2023-06-14T04:42:16;11.43;;;8.83;;
14554;SDS011;7364;50.870;4.722;2023-06-14T04:44:46;11.87;;;8.30;;
14554;SDS011;7364;50.870;4.722;2023-06-14T04:47:14;10.17;;;8.40;;
14554;SDS011;7364;50.870;4.722;2023-06-14T04:49:42;8.80;;;8.00;;
14554;SDS011;7364;50.870;4.722;2023-06-14T04:52:11;9.57;;;7.93;;
14554;SDS011;7364;50.870;4.722;2023-06-14T04:54:39;10.33;;;8.47;;
14554;SDS011;7364;50.870;4.722;2023-06-14T04:57:07;11.50;;;8.50;;
14554;SDS011;7364;50.870;4.722;2023-06-14T04:59:39;9.30;;;7.63;;
14554;SDS011;7364;50.870;4.722;2023-06-14T05:02:06;9.27;;;8.37;;
14554;SDS011;7364;50.870;4.722;2023-06-14T05:04:34;9.47;;;8.03;;
14554;SDS011;7364;50.870;4.722;2023-06-14T05:07:06;9.77;;;8.73;;
14554;SDS011;7364;50.870;4.722;2023-06-14T05:09:35;10.37;;;9.17;;
14554;SDS011;7364;50.870;4.722;2023-06-14T05:12:03;12.73;;;8.73;;
14554;SDS011;7364;50.870;4.722;2023-06-14T05:14:33;9.90;;;8.73;;
14554;SDS011;7364;50.870;4.722;2023-06-14T05:17:00;11.53;;;8.40;;
14554;SDS011;7364;50.870;4.722;2023-06-14T05:19:28;10.80;;;8.77;;
14554;SDS011;7364;50.870;4.722;2023-06-14T05:21:55;14.00;;;8.63;;
14554;SDS011;7364;50.870;4.722;2023-06-14T05:24:22;11.60;;;8.47;;
14554;SDS011;7364;50.870;4.722;2023-06-14T05:26:52;9.57;;;8.40;;
14554;SDS011;7364;50.870;4.722;2023-06-14T05:29:19;11.30;;;7.87;;
14554;SDS011;7364;50.870;4.722;2023-06-14T05:31:46;9.43;;;8.30;;
14554;SDS011;7364;50.870;4.722;2023-06-14T05:34:13;9.80;;;8.47;;
14554;SDS011;7364;50.870;4.722;2023-06-14T05:36:40;9.80;;;8.73;;
14554;SDS011;7364;50.870;4.722;2023-06-14T05:39:08;9.03;;;8.13;;
14554;SDS011;7364;50.870;4.722;2023-06-14T05:41:35;8.90;;;7.67;;
14554;SDS011;7364;50.870;4.722;2023-06-14T05:44:04;9.70;;;8.53;;
14554;SDS011;7364;50.870;4.722;2023-06-14T05:46:32;10.00;;;8.50;;
14554;SDS011;7364;50.870;4.722;2023-06-14T05:49:00;10.57;;;8.20;;
14554;SDS011;7364;50.870;4.722;2023-06-14T05:51:27;12.23;;;9.53;;
14554;SDS011;7364;50.870;4.722;2023-06-14T05:53:55;10.83;;;9.27;;
14554;SDS011;7364;50.870;4.722;2023-06-14T05:56:22;9.43;;;8.33;;
14554;SDS011;7364;50.870;4.722;2023-06-14T05:58:49;10.10;;;7.67;;
14554;SDS011;7364;50.870;4.722;2023-06-14T06:01:18;9.00;;;7.70;;
14554;SDS011;7364;50.870;4.722;2023-06-14T06:03:45;10.40;;;9.13;;
14554;SDS011;7364;50.870;4.722;2023-06-14T06:06:12;12.73;;;8.03;;
14554;SDS011;7364;50.870;4.722;2023-06-14T06:08:42;10.33;;;8.67;;
14554;SDS011;7364;50.870;4.722;2023-06-14T06:11:09;9.83;;;8.27;;
14554;SDS011;7364;50.870;4.722;2023-06-14T06:13:38;9.80;;;8.20;;
14554;SDS011;7364;50.870;4.722;2023-06-14T06:16:06;10.07;;;7.77;;
14554;SDS011;7364;50.870;4.722;2023-06-14T06:18:34;9.27;;;8.17;;
14554;SDS011;7364;50.870;4.722;2023-06-14T06:21:02;9.63;;;7.37;;
14554;SDS011;7364;50.870;4.722;2023-06-14T06:23:30;9.33;;;7.80;;
14554;SDS011;7364;50.870;4.722;2023-06-14T06:25:57;8.90;;;8.00;;
14554;SDS011;7364;50.870;4.722;2023-06-14T06:28:24;12.67;;;8.00;;
14554;SDS011;7364;50.870;4.722;2023-06-14T06:30:52;8.60;;;7.67;;
14554;SDS011;7364;50.870;4.722;2023-06-14T06:33:19;8.60;;;7.70;;
14554;SDS011;7364;50.870;4.722;2023-06-14T06:35:48;9.23;;;8.27;;
14554;SDS011;7364;50.870;4.722;2023-06-14T06:38:15;11.77;;;8.20;;
14554;SDS011;7364;50.870;4.722;2023-06-14T06:40:43;10.63;;;8.43;;
14554;SDS011;7364;50.870;4.722;2023-06-14T06:43:11;11.00;;;8.50;;
14554;SDS011;7364;50.870;4.722;2023-06-14T06:45:39;11.57;;;7.87;;
14554;SDS011;7364;50.870;4.722;2023-06-14T06:48:06;9.30;;;7.93;;
14554;SDS011;7364;50.870;4.722;2023-06-14T06:50:35;11.33;;;8.20;;
14554;SDS011;7364;50.870;4.722;2023-06-14T06:53:04;13.07;;;7.43;;
14554;SDS011;7364;50.870;4.722;2023-06-14T06:55:32;9.60;;;8.13;;
14554;SDS011;7364;50.870;4.722;2023-06-14T06:57:59;10.53;;;7.77;;
14554;SDS011;7364;50.870;4.722;2023-06-14T07:00:26;7.97;;;7.17;;
14554;SDS011;7364;50.870;4.722;2023-06-14T07:02:54;11.90;;;7.60;;
14554;SDS011;7364;50.870;4.722;2023-06-14T07:05:22;14.23;;;7.97;;
14554;SDS011;7364;50.870;4.722;2023-06-14T07:07:49;11.43;;;8.23;;
14554;SDS011;7364;50.870;4.722;2023-06-14T07:10:18;12.03;;;7.77;;
14554;SDS011;7364;50.870;4.722;2023-06-14T07:12:45;9.13;;;7.20;;
14554;SDS011;7364;50.870;4.722;2023-06-14T07:15:12;8.97;;;7.20;;
14554;SDS011;7364;50.870;4.722;2023-06-14T07:17:40;11.43;;;7.80;;
14554;SDS011;7364;50.870;4.722;2023-06-14T07:20:08;10.73;;;7.30;;
14554;SDS011;7364;50.870;4.722;2023-06-14T07:22:38;8.17;;;7.17;;
14554;SDS011;7364;50.870;4.722;2023-06-14T07:25:07;10.20;;;7.50;;
14554;SDS011;7364;50.870;4.722;2023-06-14T07:27:36;9.03;;;8.13;;
14554;SDS011;7364;50.870;4.722;2023-06-14T07:30:04;8.37;;;7.57;;
14554;SDS011;7364;50.870;4.722;2023-06-14T07:32:32;7.83;;;7.07;;
14554;SDS011;7364;50.870;4.722;2023-06-14T07:34:59;11.07;;;7.03;;
14554;SDS011;7364;50.870;4.722;2023-06-14T07:37:27;10.57;;;7.43;;
14554;SDS011;7364;50.870;4.722;2023-06-14T07:39:55;9.37;;;7.43;;
14554;SDS011;7364;50.870;4.722;2023-06-14T07:42:22;8.67;;;6.50;;
14554;SDS011;7364;50.870;4.722;2023-06-14T07:44:51;7.03;;;6.40;;
14554;SDS011;7364;50.870;4.722;2023-06-14T07:47:19;8.37;;;6.47;;
14554;SDS011;7364;50.870;4.722;2023-06-14T07:49:46;9.17;;;6.70;;
14554;SDS011;7364;50.870;4.722;2023-06-14T07:52:13;6.90;;;6.20;;
14554;SDS011;7364;50.870;4.722;2023-06-14T07:54:41;12.60;;;6.80;;
14554;SDS011;7364;50.870;4.722;2023-06-14T07:57:08;11.13;;;7.93;;
14554;SDS011;7364;50.870;4.722;2023-06-14T07:59:35;12.10;;;7.73;;
14554;SDS011;7364;50.870;4.722;2023-06-14T08:02:04;11.73;;;7.03;;
14554;SDS011;7364;50.870;4.722;2023-06-14T08:04:32;10.63;;;7.53;;
14554;SDS011;7364;50.870;4.722;2023-06-14T08:06:59;7.63;;;6.83;;
14554;SDS011;7364;50.870;4.722;2023-06-14T08:09:27;8.67;;;7.07;;
14554;SDS011;7364;50.870;4.722;2023-06-14T08:11:55;8.93;;;6.97;;
14554;SDS011;7364;50.870;4.722;2023-06-14T08:14:22;8.10;;;6.87;;
14554;SDS011;7364;50.870;4.722;2023-06-14T08:16:50;9.50;;;6.83;;
14554;SDS011;7364;50.870;4.722;2023-06-14T08:19:18;9.10;;;7.30;;
14554;SDS011;7364;50.870;4.722;2023-06-14T08:21:45;8.23;;;7.33;;
14554;SDS011;7364;50.870;4.722;2023-06-14T08:24:13;9.47;;;6.90;;
14554;SDS011;7364;50.870;4.722;2023-06-14T08:26:41;7.87;;;7.03;;
14554;SDS011;7364;50.870;4.722;2023-06-14T08:29:08;11.87;;;7.50;;
14554;SDS011;7364;50.870;4.722;2023-06-14T08:31:35;11.00;;;6.70;;
14554;SDS011;7364;50.870;4.722;2023-06-14T08:34:02;12.03;;;7.00;;
14554;SDS011;7364;50.870;4.722;2023-06-14T08:36:31;8.83;;;7.93;;
14554;SDS011;7364;50.870;4.722;2023-06-14T08:38:58;7.37;;;6.60;;
14554;SDS011;7364;50.870;4.722;2023-06-14T08:41:26;12.40;;;7.67;;
14554;SDS011;7364;50.870;4.722;2023-06-14T08:43:55;7.37;;;6.37;;
14554;SDS011;7364;50.870;4.722;2023-06-14T08:46:25;8.13;;;6.90;;
14554;SDS011;7364;50.870;4.722;2023-06-14T08:48:53;7.63;;;6.83;;
14554;SDS011;7364;50.870;4.722;2023-06-14T08:51:23;9.50;;;6.93;;
14554;SDS011;7364;50.870;4.722;2023-06-14T08:54:00;7.17;;;6.47;;
14554;SDS011;7364;50.870;4.722;2023-06-14T08:56:29;11.67;;;7.30;;
14554;SDS011;7364;50.870;4.722;2023-06-14T08:58:59;7.50;;;6.70;;
14554;SDS011;7364;50.870;4.722;2023-06-14T09:01:28;8.80;;;6.83;;
14554;SDS011;7364;50.870;4.722;2023-06-14T09:03:56;8.57;;;6.40;;
14554;SDS011;7364;50.870;4.722;2023-06-14T09:06:24;9.10;;;6.60;;
14554;SDS011;7364;50.870;4.722;2023-06-14T09:08:54;10.93;;;6.67;;
14554;SDS011;7364;50.870;4.722;2023-06-14T09:11:23;8.20;;;7.40;;
14554;SDS011;7364;50.870;4.722;2023-06-14T09:13:52;8.67;;;7.13;;
14554;SDS011;7364;50.870;4.722;2023-06-14T09:16:19;7.40;;;6.40;;
14554;SDS011;7364;50.870;4.722;2023-06-14T09:18:46;8.20;;;6.83;;
14554;SDS011;7364;50.870;4.722;2023-06-14T09:21:14;7.77;;;6.83;;
14554;SDS011;7364;50.870;4.722;2023-06-14T09:23:43;8.13;;;6.43;;
14554;SDS011;7364;50.870;4.722;2023-06-14T09:26:12;8.80;;;6.73;;
14554;SDS011;7364;50.870;4.722;2023-06-14T09:28:44;9.30;;;6.67;;
14554;SDS011;7364;50.870;4.722;2023-06-14T09:31:12;12.50;;;7.00;;
14554;SDS011;7364;50.870;4.722;2023-06-14T09:33:41;8.63;;;5.87;;
14554;SDS011;7364;50.870;4.722;2023-06-14T09:36:14;7.17;;;5.77;;
14554;SDS011;7364;50.870;4.722;2023-06-14T09:38:43;12.00;;;6.57;;
14554;SDS011;7364;50.870;4.722;2023-06-14T09:41:19;7.87;;;6.37;;
14554;SDS011;7364;50.870;4.722;2023-06-14T09:43:48;7.07;;;6.07;;
14554;SDS011;7364;50.870;4.722;2023-06-14T09:46:16;8.93;;;6.00;;
14554;SDS011;7364;50.870;4.722;2023-06-14T09:48:44;6.80;;;5.77;;
14554;SDS011;7364;50.870;4.722;2023-06-14T09:51:11;9.97;;;6.23;;
14554;SDS011;7364;50.870;4.722;2023-06-14T09:53:43;7.20;;;5.40;;
14554;SDS011;7364;50.870;4.722;2023-06-14T09:56:12;8.07;;;5.77;;
14554;SDS011;7364;50.870;4.722;2023-06-14T09:58:41;7.63;;;5.57;;
14554;SDS011;7364;50.870;4.722;2023-06-14T10:01:09;7.30;;;5.43;;
14554;SDS011;7364;50.870;4.722;2023-06-14T10:03:38;6.37;;;5.30;;
14554;SDS011;7364;50.870;4.722;2023-06-14T10:06:07;6.07;;;5.40;;
14554;SDS011;7364;50.870;4.722;2023-06-14T10:08:35;9.23;;;5.57;;
14554;SDS011;7364;50.870;4.722;2023-06-14T10:11:03;5.07;;;4.57;;
14554;SDS011;7364;50.870;4.722;2023-06-14T10:13:31;7.13;;;5.73;;
14554;SDS011;7364;50.870;4.722;2023-06-14T10:16:02;8.30;;;5.50;;
14554;SDS011;7364;50.870;4.722;2023-06-14T10:18:40;7.27;;;5.80;;
14554;SDS011;7364;50.870;4.722;2023-06-14T10:21:13;6.03;;;4.73;;
14554;SDS011;7364;50.870;4.722;2023-06-14T10:23:48;8.43;;;4.63;;
14554;SDS011;7364;50.870;4.722;2023-06-14T10:26:20;7.53;;;5.50;;
14554;SDS011;7364;50.870;4.722;2023-06-14T10:28:58;7.57;;;5.07;;
14554;SDS011;7364;50.870;4.722;2023-06-14T10:31:40;9.87;;;5.37;;
14554;SDS011;7364;50.870;4.722;2023-06-14T10:34:10;7.67;;;5.40;;
14554;SDS011;7364;50.870;4.722;2023-06-14T10:36:38;8.43;;;5.27;;
14554;SDS011;7364;50.870;4.722;2023-06-14T10:39:10;10.87;;;5.80;;
14554;SDS011;7364;50.870;4.722;2023-06-14T10:41:42;5.10;;;4.27;;
14554;SDS011;7364;50.870;4.722;2023-06-14T10:47:07;4.95;;;4.07;;
14554;SDS011;7364;50.870;4.722;2023-06-14T10:49:38;8.70;;;4.50;;
14554;SDS011;7364;50.870;4.722;2023-06-14T10:52:16;7.43;;;4.78;;
14554;SDS011;7364;50.870;4.722;2023-06-14T10:54:59;5.00;;;3.92;;
14554;SDS011;7364;50.870;4.722;2023-06-14T10:57:29;5.30;;;3.85;;
14554;SDS011;7364;50.870;4.722;2023-06-14T10:59:58;5.43;;;4.10;;
14554;SDS011;7364;50.870;4.722;2023-06-14T11:05:23;6.80;;;4.35;;
14554;SDS011;7364;50.870;4.722;2023-06-14T11:07:58;4.78;;;3.92;;
14554;SDS011;7364;50.870;4.722;2023-06-14T11:10:51;5.30;;;3.95;;
14554;SDS011;7364;50.870;4.722;2023-06-14T11:13:24;5.45;;;4.35;;
14554;SDS011;7364;50.870;4.722;2023-06-14T11:15:52;4.68;;;4.18;;
14554;SDS011;7364;50.870;4.722;2023-06-14T11:18:22;6.43;;;4.30;;
14554;SDS011;7364;50.870;4.722;2023-06-14T11:20:53;4.43;;;4.00;;
14554;SDS011;7364;50.870;4.722;2023-06-14T11:23:21;6.50;;;4.13;;
14554;SDS011;7364;50.870;4.722;2023-06-14T11:25:52;5.85;;;4.10;;
14554;SDS011;7364;50.870;4.722;2023-06-14T11:28:19;5.60;;;3.67;;
14554;SDS011;7364;50.870;4.722;2023-06-14T11:30:47;6.20;;;3.90;;
14554;SDS011;7364;50.870;4.722;2023-06-14T11:33:17;6.30;;;4.40;;
14554;SDS011;7364;50.870;4.722;2023-06-14T11:35:44;4.20;;;3.80;;
14554;SDS011;7364;50.870;4.722;2023-06-14T11:38:13;7.95;;;4.05;;
14554;SDS011;7364;50.870;4.722;2023-06-14T11:40:40;6.13;;;3.88;;
14554;SDS011;7364;50.870;4.722;2023-06-14T11:43:08;10.52;;;4.57;;
14554;SDS011;7364;50.870;4.722;2023-06-14T11:45:35;6.32;;;3.92;;
14554;SDS011;7364;50.870;4.722;2023-06-14T11:48:02;6.40;;;3.90;;
14554;SDS011;7364;50.870;4.722;2023-06-14T11:50:30;4.50;;;4.05;;
14554;SDS011;7364;50.870;4.722;2023-06-14T11:52:59;3.97;;;3.58;;
14554;SDS011;7364;50.870;4.722;2023-06-14T11:55:33;9.13;;;4.47;;
14554;SDS011;7364;50.870;4.722;2023-06-14T11:58:03;6.15;;;4.05;;
14554;SDS011;7364;50.870;4.722;2023-06-14T12:00:30;6.65;;;3.88;;
14554;SDS011;7364;50.870;4.722;2023-06-14T12:02:58;5.43;;;3.67;;
14554;SDS011;7364;50.870;4.722;2023-06-14T12:05:25;7.80;;;3.50;;
14554;SDS011;7364;50.870;4.722;2023-06-14T12:07:57;6.78;;;4.50;;
14554;SDS011;7364;50.870;4.722;2023-06-14T12:10:25;5.65;;;3.85;;
14554;SDS011;7364;50.870;4.722;2023-06-14T12:12:57;6.28;;;3.72;;
14554;SDS011;7364;50.870;4.722;2023-06-14T12:15:27;4.13;;;3.42;;
14554;SDS011;7364;50.870;4.722;2023-06-14T12:17:55;3.85;;;3.20;;
14554;SDS011;7364;50.870;4.722;2023-06-14T12:20:28;3.75;;;3.00;;
14554;SDS011;7364;50.870;4.722;2023-06-14T12:22:56;5.50;;;3.83;;
14554;SDS011;7364;50.870;4.722;2023-06-14T12:25:27;9.75;;;3.33;;
14554;SDS011;7364;50.870;4.722;2023-06-14T12:27:57;3.38;;;3.00;;
14554;SDS011;7364;50.870;4.722;2023-06-14T12:30:25;4.82;;;3.17;;
14554;SDS011;7364;50.870;4.722;2023-06-14T12:32:52;6.15;;;3.22;;
14554;SDS011;7364;50.870;4.722;2023-06-14T12:35:20;4.13;;;3.08;;
14554;SDS011;7364;50.870;4.722;2023-06-14T12:37:47;5.60;;;3.20;;
14554;SDS011;7364;50.870;4.722;2023-06-14T12:40:14;3.88;;;2.90;;
14554;SDS011;7364;50.870;4.722;2023-06-14T12:42:41;5.15;;;3.40;;
14554;SDS011;7364;50.870;4.722;2023-06-14T12:45:10;3.40;;;3.08;;
14554;SDS011;7364;50.870;4.722;2023-06-14T12:47:37;4.43;;;3.22;;
14554;SDS011;7364;50.870;4.722;2023-06-14T12:50:05;6.22;;;3.22;;
14554;SDS011;7364;50.870;4.722;2023-06-14T12:52:33;2.80;;;2.53;;
14554;SDS011;7364;50.870;4.722;2023-06-14T12:55:01;3.53;;;2.80;;
14554;SDS011;7364;50.870;4.722;2023-06-14T12:57:31;3.53;;;2.80;;
14554;SDS011;7364;50.870;4.722;2023-06-14T13:00:01;3.47;;;2.45;;
14554;SDS011;7364;50.870;4.722;2023-06-14T13:02:34;7.57;;;3.25;;
14554;SDS011;7364;50.870;4.722;2023-06-14T13:05:01;4.55;;;2.50;;
14554;SDS011;7364;50.870;4.722;2023-06-14T13:07:29;3.80;;;2.50;;
14554;SDS011;7364;50.870;4.722;2023-06-14T13:09:56;2.83;;;2.30;;
14554;SDS011;7364;50.870;4.722;2023-06-14T13:12:24;5.20;;;2.33;;
14554;SDS011;7364;50.870;4.722;2023-06-14T13:14:51;5.57;;;2.30;;
14554;SDS011;7364;50.870;4.722;2023-06-14T13:17:18;4.00;;;2.35;;
14554;SDS011;7364;50.870;4.722;2023-06-14T13:19:47;2.92;;;2.17;;
14554;SDS011;7364;50.870;4.722;2023-06-14T13:22:15;4.35;;;2.20;;
14554;SDS011;7364;50.870;4.722;2023-06-14T13:24:42;2.75;;;2.00;;
14554;SDS011;7364;50.870;4.722;2023-06-14T13:27:09;3.35;;;2.17;;
14554;SDS011;7364;50.870;4.722;2023-06-14T13:29:38;3.25;;;1.88;;
14554;SDS011;7364;50.870;4.722;2023-06-14T13:32:06;2.85;;;2.17;;
14554;SDS011;7364;50.870;4.722;2023-06-14T13:34:33;2.25;;;1.48;;
14554;SDS011;7364;50.870;4.722;2023-06-14T13:37:02;3.08;;;1.73;;
14554;SDS011;7364;50.870;4.722;2023-06-14T13:39:30;4.57;;;1.90;;
14554;SDS011;7364;50.870;4.722;2023-06-14T13:41:59;1.77;;;1.60;;
14554;SDS011;7364;50.870;4.722;2023-06-14T13:44:26;2.95;;;1.77;;
14554;SDS011;7364;50.870;4.722;2023-06-14T13:46:53;3.78;;;1.95;;
14554;SDS011;7364;50.870;4.722;2023-06-14T13:49:20;3.03;;;1.98;;
14554;SDS011;7364;50.870;4.722;2023-06-14T13:51:48;5.22;;;1.90;;
14554;SDS011;7364;50.870;4.722;2023-06-14T13:54:18;4.00;;;1.85;;
14554;SDS011;7364;50.870;4.722;2023-06-14T13:56:47;3.17;;;1.83;;
14554;SDS011;7364;50.870;4.722;2023-06-14T13:59:14;4.30;;;1.88;;
14554;SDS011;7364;50.870;4.722;2023-06-14T14:01:41;4.50;;;1.83;;
14554;SDS011;7364;50.870;4.722;2023-06-14T14:04:08;3.63;;;1.77;;
14554;SDS011;7364;50.870;4.722;2023-06-14T14:06:36;4.00;;;1.83;;
14554;SDS011;7364;50.870;4.722;2023-06-14T14:09:03;2.83;;;1.90;;
14554;SDS011;7364;50.870;4.722;2023-06-14T14:11:33;3.42;;;2.33;;
14554;SDS011;7364;50.870;4.722;2023-06-14T14:14:00;2.90;;;1.83;;
14554;SDS011;7364;50.870;4.722;2023-06-14T14:16:27;4.93;;;2.30;;
14554;SDS011;7364;50.870;4.722;2023-06-14T14:18:55;3.00;;;2.00;;
14554;SDS011;7364;50.870;4.722;2023-06-14T14:21:23;2.80;;;1.83;;
14554;SDS011;7364;50.870;4.722;2023-06-14T14:23:51;4.05;;;2.05;;
14554;SDS011;7364;50.870;4.722;2023-06-14T14:26:18;2.28;;;1.85;;
14554;SDS011;7364;50.870;4.722;2023-06-14T14:28:47;2.65;;;2.00;;
14554;SDS011;7364;50.870;4.722;2023-06-14T14:31:14;3.65;;;1.75;;
14554;SDS011;7364;50.870;4.722;2023-06-14T14:33:41;2.83;;;1.70;;
14554;SDS011;7364;50.870;4.722;2023-06-14T14:36:08;3.28;;;1.77;;
14554;SDS011;7364;50.870;4.722;2023-06-14T14:38:36;4.03;;;1.88;;
14554;SDS011;7364;50.870;4.722;2023-06-14T14:41:03;2.50;;;1.75;;
14554;SDS011;7364;50.870;4.722;2023-06-14T14:43:30;3.20;;;2.20;;
14554;SDS011;7364;50.870;4.722;2023-06-14T14:45:59;2.92;;;1.83;;
14554;SDS011;7364;50.870;4.722;2023-06-14T14:48:26;3.80;;;1.92;;
14554;SDS011;7364;50.870;4.722;2023-06-14T14:50:53;5.55;;;1.90;;
14554;SDS011;7364;50.870;4.722;2023-06-14T14:53:21;1.80;;;1.70;;
14554;SDS011;7364;50.870;4.722;2023-06-14T14:55:48;3.20;;;2.13;;
14554;SDS011;7364;50.870;4.722;2023-06-14T14:58:15;4.45;;;1.98;;
14554;SDS011;7364;50.870;4.722;2023-06-14T15:00:43;2.22;;;1.77;;
14554;SDS011;7364;50.870;4.722;2023-06-14T15:03:12;4.03;;;2.13;;
14554;SDS011;7364;50.870;4.722;2023-06-14T15:05:40;3.47;;;2.17;;
14554;SDS011;7364;50.870;4.722;2023-06-14T15:08:07;3.55;;;2.25;;
14554;SDS011;7364;50.870;4.722;2023-06-14T15:10:37;4.35;;;2.15;;
14554;SDS011;7364;50.870;4.722;2023-06-14T15:13:06;4.32;;;2.03;;